sensor_id;sensor_type;location;lat;lon;timestamp;P1;durP1;ratioP1;P2;durP2;ratioP2
68379;SDS011;57711;53.196;19.638;2023-11-22T05:25:09;38.40;;;25.40;;
68379;SDS011;57711;53.196;19.638;2023-11-22T05:27:37;54.20;;;34.10;;
68379;SDS011;57711;53.196;19.638;2023-11-22T05:30:05;37.60;;;23.80;;
68379;SDS011;57711;53.196;19.638;2023-11-22T05:32:33;37.30;;;23.40;;
68379;SDS011;57711;53.196;19.638;2023-11-22T05:35:01;43.60;;;26.70;;
68379;SDS011;57711;53.196;19.638;2023-11-22T05:37:30;40.20;;;25.40;;
68379;SDS011;57711;53.196;19.638;2023-11-22T05:39:57;51.00;;;29.60;;
68379;SDS011;57711;53.196;19.638;2023-11-22T05:42:24;48.30;;;32.10;;
68379;SDS011;57711;53.196;19.638;2023-11-22T05:44:51;56.40;;;37.30;;
68379;SDS011;57711;53.196;19.638;2023-11-22T05:47:19;55.80;;;37.60;;
68379;SDS011;57711;53.196;19.638;2023-11-22T05:49:46;55.10;;;36.70;;
68379;SDS011;57711;53.196;19.638;2023-11-22T05:52:13;68.10;;;39.40;;
68379;SDS011;57711;53.196;19.638;2023-11-22T05:54:40;54.30;;;31.60;;
68379;SDS011;57711;53.196;19.638;2023-11-22T05:57:08;54.20;;;31.60;;
68379;SDS011;57711;53.196;19.638;2023-11-22T05:59:36;57.50;;;31.60;;
68379;SDS011;57711;53.196;19.638;2023-11-22T06:02:03;59.10;;;33.30;;
68379;SDS011;57711;53.196;19.638;2023-11-22T06:04:30;65.90;;;35.30;;
68379;SDS011;57711;53.196;19.638;2023-11-22T06:06:58;76.90;;;40.30;;
68379;SDS011;57711;53.196;19.638;2023-11-22T06:09:25;84.10;;;42.10;;
68379;SDS011;57711;53.196;19.638;2023-11-22T06:11:52;72.60;;;39.90;;
68379;SDS011;57711;53.196;19.638;2023-11-22T06:14:21;58.80;;;33.90;;
68379;SDS011;57711;53.196;19.638;2023-11-22T06:16:48;62.10;;;29.70;;
68379;SDS011;57711;53.196;19.638;2023-11-22T06:19:16;93.00;;;41.30;;
68379;SDS011;57711;53.196;19.638;2023-11-22T06:21:43;111.80;;;42.20;;
68379;SDS011;57711;53.196;19.638;2023-11-22T06:24:10;99.60;;;38.30;;
68379;SDS011;57711;53.196;19.638;2023-11-22T06:26:43;93.30;;;36.80;;
68379;SDS011;57711;53.196;19.638;2023-11-22T06:29:13;116.90;;;46.60;;
68379;SDS011;57711;53.196;19.638;2023-11-22T06:31:41;189.30;;;77.90;;
68379;SDS011;57711;53.196;19.638;2023-11-22T06:34:08;169.60;;;72.20;;
68379;SDS011;57711;53.196;19.638;2023-11-22T06:36:35;155.50;;;70.90;;
68379;SDS011;57711;53.196;19.638;2023-11-22T06:39:03;62.70;;;33.00;;
68379;SDS011;57711;53.196;19.638;2023-11-22T06:41:32;42.80;;;24.70;;
68379;SDS011;57711;53.196;19.638;2023-11-22T06:43:59;48.20;;;28.30;;
68379;SDS011;57711;53.196;19.638;2023-11-22T06:46:26;42.50;;;24.80;;
68379;SDS011;57711;53.196;19.638;2023-11-22T06:48:53;42.80;;;26.40;;
68379;SDS011;57711;53.196;19.638;2023-11-22T06:51:20;107.40;;;58.80;;
68379;SDS011;57711;53.196;19.638;2023-11-22T06:53:48;99.40;;;57.50;;
68379;SDS011;57711;53.196;19.638;2023-11-22T06:56:15;81.90;;;43.50;;
68379;SDS011;57711;53.196;19.638;2023-11-22T06:58:44;117.20;;;62.50;;
68379;SDS011;57711;53.196;19.638;2023-11-22T07:01:12;172.00;;;88.10;;
68379;SDS011;57711;53.196;19.638;2023-11-22T07:03:42;60.60;;;35.80;;
68379;SDS011;57711;53.196;19.638;2023-11-22T07:06:10;39.80;;;24.70;;
68379;SDS011;57711;53.196;19.638;2023-11-22T07:08:37;43.70;;;22.50;;
68379;SDS011;57711;53.196;19.638;2023-11-22T07:11:04;49.40;;;25.30;;
68379;SDS011;57711;53.196;19.638;2023-11-22T07:13:32;69.80;;;28.30;;
68379;SDS011;57711;53.196;19.638;2023-11-22T07:16:00;56.20;;;26.50;;
68379;SDS011;57711;53.196;19.638;2023-11-22T07:18:27;57.40;;;27.00;;
68379;SDS011;57711;53.196;19.638;2023-11-22T07:20:54;49.70;;;26.10;;
68379;SDS011;57711;53.196;19.638;2023-11-22T07:23:22;50.10;;;25.50;;
68379;SDS011;57711;53.196;19.638;2023-11-22T07:25:54;54.90;;;27.80;;
68379;SDS011;57711;53.196;19.638;2023-11-22T07:28:21;92.10;;;41.30;;
68379;SDS011;57711;53.196;19.638;2023-11-22T07:30:49;117.20;;;41.90;;
68379;SDS011;57711;53.196;19.638;2023-11-22T07:33:16;511.70;;;209.60;;
68379;SDS011;57711;53.196;19.638;2023-11-22T07:35:43;249.80;;;91.40;;
68379;SDS011;57711;53.196;19.638;2023-11-22T07:38:10;216.90;;;90.00;;
68379;SDS011;57711;53.196;19.638;2023-11-22T07:40:38;443.80;;;189.50;;
68379;SDS011;57711;53.196;19.638;2023-11-22T07:43:05;319.30;;;121.30;;
68379;SDS011;57711;53.196;19.638;2023-11-22T07:45:34;218.00;;;85.80;;
68379;SDS011;57711;53.196;19.638;2023-11-22T07:48:01;123.60;;;49.30;;
68379;SDS011;57711;53.196;19.638;2023-11-22T07:50:30;206.20;;;64.50;;
68379;SDS011;57711;53.196;19.638;2023-11-22T07:52:57;300.30;;;81.40;;
68379;SDS011;57711;53.196;19.638;2023-11-22T07:55:24;208.10;;;63.60;;
68379;SDS011;57711;53.196;19.638;2023-11-22T07:57:51;164.50;;;50.50;;
68379;SDS011;57711;53.196;19.638;2023-11-22T08:00:19;171.90;;;50.90;;
68379;SDS011;57711;53.196;19.638;2023-11-22T08:02:47;113.00;;;41.50;;
68379;SDS011;57711;53.196;19.638;2023-11-22T08:05:14;38.70;;;20.30;;
68379;SDS011;57711;53.196;19.638;2023-11-22T08:07:42;33.40;;;17.80;;
68379;SDS011;57711;53.196;19.638;2023-11-22T08:10:15;94.30;;;35.00;;
68379;SDS011;57711;53.196;19.638;2023-11-22T08:12:46;51.40;;;24.60;;
68379;SDS011;57711;53.196;19.638;2023-11-22T08:15:14;35.20;;;20.30;;
68379;SDS011;57711;53.196;19.638;2023-11-22T08:17:42;32.70;;;16.20;;
68379;SDS011;57711;53.196;19.638;2023-11-22T08:20:10;25.80;;;15.60;;
68379;SDS011;57711;53.196;19.638;2023-11-22T08:22:41;35.30;;;17.30;;
68379;SDS011;57711;53.196;19.638;2023-11-22T08:25:09;39.10;;;18.60;;
68379;SDS011;57711;53.196;19.638;2023-11-22T08:27:39;48.20;;;21.60;;
68379;SDS011;57711;53.196;19.638;2023-11-22T08:30:10;42.70;;;24.70;;
68379;SDS011;57711;53.196;19.638;2023-11-22T08:32:42;101.00;;;46.50;;
68379;SDS011;57711;53.196;19.638;2023-11-22T08:35:11;82.70;;;33.40;;
68379;SDS011;57711;53.196;19.638;2023-11-22T08:37:39;100.80;;;33.20;;
68379;SDS011;57711;53.196;19.638;2023-11-22T08:40:09;161.70;;;45.00;;
68379;SDS011;57711;53.196;19.638;2023-11-22T08:42:47;66.60;;;24.20;;
68379;SDS011;57711;53.196;19.638;2023-11-22T08:45:14;46.20;;;16.40;;
68379;SDS011;57711;53.196;19.638;2023-11-22T08:47:42;74.00;;;24.30;;
68379;SDS011;57711;53.196;19.638;2023-11-22T08:50:09;33.20;;;14.40;;
68379;SDS011;57711;53.196;19.638;2023-11-22T08:52:40;49.00;;;19.30;;
68379;SDS011;57711;53.196;19.638;2023-11-22T08:55:09;59.80;;;22.60;;
68379;SDS011;57711;53.196;19.638;2023-11-22T08:57:36;28.90;;;14.50;;
68379;SDS011;57711;53.196;19.638;2023-11-22T09:00:04;22.50;;;11.10;;
68379;SDS011;57711;53.196;19.638;2023-11-22T09:02:36;32.30;;;14.20;;
68379;SDS011;57711;53.196;19.638;2023-11-22T09:05:05;45.70;;;18.70;;
68379;SDS011;57711;53.196;19.638;2023-11-22T09:07:35;64.60;;;21.60;;
68379;SDS011;57711;53.196;19.638;2023-11-22T09:10:03;55.60;;;19.80;;
68379;SDS011;57711;53.196;19.638;2023-11-22T09:12:38;69.30;;;24.80;;
68379;SDS011;57711;53.196;19.638;2023-11-22T09:15:08;31.00;;;14.80;;
68379;SDS011;57711;53.196;19.638;2023-11-22T09:17:53;30.40;;;15.10;;
68379;SDS011;57711;53.196;19.638;2023-11-22T09:20:20;32.30;;;14.40;;
68379;SDS011;57711;53.196;19.638;2023-11-22T09:22:49;52.20;;;21.30;;
68379;SDS011;57711;53.196;19.638;2023-11-22T09:25:21;76.50;;;32.30;;
68379;SDS011;57711;53.196;19.638;2023-11-22T09:27:52;92.20;;;31.80;;
68379;SDS011;57711;53.196;19.638;2023-11-22T09:30:27;67.80;;;27.00;;
68379;SDS011;57711;53.196;19.638;2023-11-22T09:35:42;54.10;;;22.40;;
68379;SDS011;57711;53.196;19.638;2023-11-22T09:38:15;195.40;;;106.60;;
68379;SDS011;57711;53.196;19.638;2023-11-22T09:40:44;73.40;;;47.00;;
68379;SDS011;57711;53.196;19.638;2023-11-22T09:43:13;60.70;;;24.60;;
68379;SDS011;57711;53.196;19.638;2023-11-22T09:45:47;47.40;;;18.90;;
68379;SDS011;57711;53.196;19.638;2023-11-22T09:48:23;107.50;;;34.40;;
68379;SDS011;57711;53.196;19.638;2023-11-22T09:51:04;32.90;;;13.60;;
68379;SDS011;57711;53.196;19.638;2023-11-22T09:53:47;28.90;;;12.90;;
68379;SDS011;57711;53.196;19.638;2023-11-22T09:56:24;42.40;;;15.20;;
68379;SDS011;57711;53.196;19.638;2023-11-22T09:58:53;30.50;;;12.60;;
68379;SDS011;57711;53.196;19.638;2023-11-22T10:01:23;35.20;;;17.10;;
68379;SDS011;57711;53.196;19.638;2023-11-22T10:03:50;26.10;;;12.70;;
68379;SDS011;57711;53.196;19.638;2023-11-22T10:06:19;37.70;;;19.80;;
68379;SDS011;57711;53.196;19.638;2023-11-22T10:08:47;36.60;;;14.20;;
68379;SDS011;57711;53.196;19.638;2023-11-22T10:11:17;29.30;;;14.00;;
68379;SDS011;57711;53.196;19.638;2023-11-22T10:13:51;38.40;;;15.50;;
68379;SDS011;57711;53.196;19.638;2023-11-22T10:16:18;37.90;;;13.60;;
68379;SDS011;57711;53.196;19.638;2023-11-22T10:18:48;37.90;;;14.90;;
68379;SDS011;57711;53.196;19.638;2023-11-22T10:23:57;39.40;;;16.80;;
68379;SDS011;57711;53.196;19.638;2023-11-22T10:26:29;61.40;;;19.70;;
68379;SDS011;57711;53.196;19.638;2023-11-22T10:28:58;51.80;;;19.80;;
68379;SDS011;57711;53.196;19.638;2023-11-22T10:31:26;157.60;;;50.00;;
68379;SDS011;57711;53.196;19.638;2023-11-22T10:33:55;49.40;;;22.10;;
68379;SDS011;57711;53.196;19.638;2023-11-22T10:36:25;36.40;;;13.50;;
68379;SDS011;57711;53.196;19.638;2023-11-22T10:38:52;64.30;;;23.50;;
68379;SDS011;57711;53.196;19.638;2023-11-22T10:41:21;32.50;;;15.60;;
68379;SDS011;57711;53.196;19.638;2023-11-22T10:43:51;23.30;;;12.60;;
68379;SDS011;57711;53.196;19.638;2023-11-22T10:46:32;18.50;;;9.00;;
68379;SDS011;57711;53.196;19.638;2023-11-22T10:49:00;18.70;;;8.70;;
68379;SDS011;57711;53.196;19.638;2023-11-22T10:51:30;12.70;;;7.70;;
68379;SDS011;57711;53.196;19.638;2023-11-22T10:53:59;15.70;;;9.00;;
68379;SDS011;57711;53.196;19.638;2023-11-22T10:56:36;13.10;;;7.20;;
68379;SDS011;57711;53.196;19.638;2023-11-22T10:59:09;12.00;;;7.20;;
68379;SDS011;57711;53.196;19.638;2023-11-22T11:01:44;17.10;;;8.30;;
68379;SDS011;57711;53.196;19.638;2023-11-22T11:04:19;17.40;;;9.90;;
68379;SDS011;57711;53.196;19.638;2023-11-22T11:06:51;22.50;;;10.60;;
68379;SDS011;57711;53.196;19.638;2023-11-22T11:09:22;41.50;;;20.50;;
68379;SDS011;57711;53.196;19.638;2023-11-22T11:11:53;22.60;;;11.60;;
68379;SDS011;57711;53.196;19.638;2023-11-22T11:14:21;60.30;;;24.00;;
68379;SDS011;57711;53.196;19.638;2023-11-22T11:16:49;55.90;;;21.00;;
68379;SDS011;57711;53.196;19.638;2023-11-22T11:19:21;60.30;;;23.90;;
68379;SDS011;57711;53.196;19.638;2023-11-22T11:21:52;62.60;;;26.10;;
68379;SDS011;57711;53.196;19.638;2023-11-22T11:24:19;60.20;;;25.80;;
68379;SDS011;57711;53.196;19.638;2023-11-22T11:26:49;79.00;;;32.80;;
68379;SDS011;57711;53.196;19.638;2023-11-22T11:29:34;49.40;;;21.90;;
68379;SDS011;57711;53.196;19.638;2023-11-22T11:32:11;48.30;;;22.20;;
68379;SDS011;57711;53.196;19.638;2023-11-22T11:34:49;28.10;;;16.70;;
68379;SDS011;57711;53.196;19.638;2023-11-22T11:37:19;29.20;;;16.90;;
68379;SDS011;57711;53.196;19.638;2023-11-22T11:39:47;41.90;;;20.50;;
68379;SDS011;57711;53.196;19.638;2023-11-22T11:42:15;42.30;;;18.50;;
68379;SDS011;57711;53.196;19.638;2023-11-22T11:45:02;35.00;;;17.60;;
68379;SDS011;57711;53.196;19.638;2023-11-22T11:47:33;29.90;;;14.40;;
68379;SDS011;57711;53.196;19.638;2023-11-22T11:50:00;23.10;;;11.60;;
68379;SDS011;57711;53.196;19.638;2023-11-22T11:52:29;28.00;;;11.80;;
68379;SDS011;57711;53.196;19.638;2023-11-22T11:54:58;26.60;;;13.40;;
68379;SDS011;57711;53.196;19.638;2023-11-22T11:57:30;22.80;;;12.50;;
68379;SDS011;57711;53.196;19.638;2023-11-22T11:59:57;15.90;;;9.10;;
68379;SDS011;57711;53.196;19.638;2023-11-22T12:02:26;23.50;;;10.60;;
68379;SDS011;57711;53.196;19.638;2023-11-22T12:04:53;38.60;;;17.20;;
68379;SDS011;57711;53.196;19.638;2023-11-22T12:07:21;36.00;;;16.10;;
68379;SDS011;57711;53.196;19.638;2023-11-22T12:09:48;37.70;;;16.50;;
68379;SDS011;57711;53.196;19.638;2023-11-22T12:12:15;61.00;;;29.30;;
68379;SDS011;57711;53.196;19.638;2023-11-22T12:14:42;121.60;;;49.70;;
68379;SDS011;57711;53.196;19.638;2023-11-22T12:17:11;118.90;;;45.10;;
68379;SDS011;57711;53.196;19.638;2023-11-22T12:19:38;124.50;;;41.50;;
68379;SDS011;57711;53.196;19.638;2023-11-22T12:22:05;64.30;;;29.20;;
68379;SDS011;57711;53.196;19.638;2023-11-22T12:24:34;51.20;;;23.40;;
68379;SDS011;57711;53.196;19.638;2023-11-22T12:27:02;57.60;;;26.60;;
68379;SDS011;57711;53.196;19.638;2023-11-22T12:29:29;49.50;;;20.80;;
68379;SDS011;57711;53.196;19.638;2023-11-22T12:31:56;40.60;;;21.70;;
68379;SDS011;57711;53.196;19.638;2023-11-22T12:34:23;68.20;;;29.60;;
68379;SDS011;57711;53.196;19.638;2023-11-22T12:36:54;36.80;;;16.90;;
68379;SDS011;57711;53.196;19.638;2023-11-22T12:39:22;40.70;;;18.00;;
68379;SDS011;57711;53.196;19.638;2023-11-22T12:41:50;68.40;;;26.00;;
68379;SDS011;57711;53.196;19.638;2023-11-22T12:44:38;57.60;;;23.40;;
68379;SDS011;57711;53.196;19.638;2023-11-22T12:47:15;76.80;;;28.30;;
68379;SDS011;57711;53.196;19.638;2023-11-22T12:49:43;73.50;;;27.60;;
68379;SDS011;57711;53.196;19.638;2023-11-22T12:52:14;78.30;;;27.10;;
68379;SDS011;57711;53.196;19.638;2023-11-22T12:54:41;49.70;;;21.20;;
68379;SDS011;57711;53.196;19.638;2023-11-22T12:57:11;56.40;;;23.80;;
68379;SDS011;57711;53.196;19.638;2023-11-22T12:59:39;56.90;;;21.00;;
68379;SDS011;57711;53.196;19.638;2023-11-22T13:02:08;65.80;;;27.70;;
68379;SDS011;57711;53.196;19.638;2023-11-22T13:04:36;59.30;;;26.50;;
68379;SDS011;57711;53.196;19.638;2023-11-22T13:07:03;94.00;;;40.20;;
68379;SDS011;57711;53.196;19.638;2023-11-22T13:09:31;69.10;;;31.70;;
68379;SDS011;57711;53.196;19.638;2023-11-22T13:12:01;148.90;;;63.90;;
68379;SDS011;57711;53.196;19.638;2023-11-22T13:14:28;45.70;;;23.60;;
68379;SDS011;57711;53.196;19.638;2023-11-22T13:17:03;41.60;;;21.90;;
68379;SDS011;57711;53.196;19.638;2023-11-22T13:19:31;84.20;;;38.20;;
68379;SDS011;57711;53.196;19.638;2023-11-22T13:21:58;52.30;;;26.90;;
68379;SDS011;57711;53.196;19.638;2023-11-22T13:24:25;45.70;;;22.80;;
68379;SDS011;57711;53.196;19.638;2023-11-22T13:26:52;34.30;;;18.00;;
68379;SDS011;57711;53.196;19.638;2023-11-22T13:29:19;46.70;;;19.40;;
68379;SDS011;57711;53.196;19.638;2023-11-22T13:31:46;47.70;;;18.10;;
68379;SDS011;57711;53.196;19.638;2023-11-22T13:34:13;39.10;;;19.40;;
68379;SDS011;57711;53.196;19.638;2023-11-22T13:36:41;57.30;;;26.00;;
68379;SDS011;57711;53.196;19.638;2023-11-22T13:39:08;37.00;;;18.80;;
68379;SDS011;57711;53.196;19.638;2023-11-22T13:41:35;49.40;;;23.20;;
68379;SDS011;57711;53.196;19.638;2023-11-22T13:44:02;34.50;;;18.10;;
68379;SDS011;57711;53.196;19.638;2023-11-22T13:46:29;40.50;;;23.60;;
68379;SDS011;57711;53.196;19.638;2023-11-22T13:48:56;55.80;;;29.70;;
68379;SDS011;57711;53.196;19.638;2023-11-22T13:51:24;45.80;;;25.10;;
68379;SDS011;57711;53.196;19.638;2023-11-22T13:53:52;40.70;;;22.60;;
68379;SDS011;57711;53.196;19.638;2023-11-22T13:56:20;59.80;;;31.10;;
68379;SDS011;57711;53.196;19.638;2023-11-22T13:58:48;52.30;;;24.30;;
68379;SDS011;57711;53.196;19.638;2023-11-22T14:01:15;49.30;;;24.10;;
68379;SDS011;57711;53.196;19.638;2023-11-22T14:03:49;64.20;;;29.60;;
68379;SDS011;57711;53.196;19.638;2023-11-22T14:06:16;56.70;;;24.70;;
68379;SDS011;57711;53.196;19.638;2023-11-22T14:08:43;49.30;;;20.50;;
68379;SDS011;57711;53.196;19.638;2023-11-22T14:11:12;43.30;;;21.40;;
68379;SDS011;57711;53.196;19.638;2023-11-22T14:13:39;54.30;;;23.10;;
68379;SDS011;57711;53.196;19.638;2023-11-22T14:16:07;102.90;;;46.40;;
68379;SDS011;57711;53.196;19.638;2023-11-22T14:18:35;50.10;;;23.10;;
68379;SDS011;57711;53.196;19.638;2023-11-22T14:21:03;584.90;;;280.10;;
68379;SDS011;57711;53.196;19.638;2023-11-22T14:23:31;269.60;;;99.20;;
68379;SDS011;57711;53.196;19.638;2023-11-22T14:26:00;275.80;;;89.80;;
68379;SDS011;57711;53.196;19.638;2023-11-22T14:28:27;377.30;;;107.30;;
68379;SDS011;57711;53.196;19.638;2023-11-22T14:30:55;330.60;;;93.00;;
68379;SDS011;57711;53.196;19.638;2023-11-22T14:33:23;282.10;;;74.10;;
68379;SDS011;57711;53.196;19.638;2023-11-22T14:35:50;652.40;;;218.50;;
68379;SDS011;57711;53.196;19.638;2023-11-22T14:38:17;603.30;;;188.20;;
68379;SDS011;57711;53.196;19.638;2023-11-22T14:40:45;176.30;;;52.40;;
68379;SDS011;57711;53.196;19.638;2023-11-22T14:43:13;194.90;;;57.80;;
68379;SDS011;57711;53.196;19.638;2023-11-22T14:45:40;146.50;;;49.10;;
68379;SDS011;57711;53.196;19.638;2023-11-22T14:48:07;86.40;;;29.80;;
68379;SDS011;57711;53.196;19.638;2023-11-22T14:50:36;69.50;;;25.80;;
68379;SDS011;57711;53.196;19.638;2023-11-22T14:53:03;50.60;;;21.90;;
68379;SDS011;57711;53.196;19.638;2023-11-22T14:55:30;97.30;;;41.20;;
68379;SDS011;57711;53.196;19.638;2023-11-22T14:57:59;100.40;;;31.50;;
68379;SDS011;57711;53.196;19.638;2023-11-22T15:00:27;91.80;;;30.40;;
68379;SDS011;57711;53.196;19.638;2023-11-22T15:02:55;55.80;;;21.10;;
68379;SDS011;57711;53.196;19.638;2023-11-22T15:05:24;49.40;;;19.10;;
68379;SDS011;57711;53.196;19.638;2023-11-22T15:07:53;38.60;;;17.30;;
68379;SDS011;57711;53.196;19.638;2023-11-22T15:10:24;49.20;;;19.80;;
68379;SDS011;57711;53.196;19.638;2023-11-22T15:12:53;49.70;;;24.90;;
68379;SDS011;57711;53.196;19.638;2023-11-22T15:15:22;77.40;;;30.10;;
68379;SDS011;57711;53.196;19.638;2023-11-22T15:17:52;86.70;;;29.70;;
68379;SDS011;57711;53.196;19.638;2023-11-22T15:20:20;74.80;;;32.80;;
68379;SDS011;57711;53.196;19.638;2023-11-22T15:22:48;113.40;;;46.70;;
68379;SDS011;57711;53.196;19.638;2023-11-22T15:25:17;74.90;;;36.30;;
68379;SDS011;57711;53.196;19.638;2023-11-22T15:27:44;97.30;;;42.10;;
68379;SDS011;57711;53.196;19.638;2023-11-22T15:30:12;112.70;;;52.90;;
68379;SDS011;57711;53.196;19.638;2023-11-22T15:32:39;108.70;;;41.90;;
68379;SDS011;57711;53.196;19.638;2023-11-22T15:35:07;105.60;;;46.60;;
68379;SDS011;57711;53.196;19.638;2023-11-22T15:37:35;88.40;;;37.40;;
68379;SDS011;57711;53.196;19.638;2023-11-22T15:40:03;95.40;;;31.50;;
68379;SDS011;57711;53.196;19.638;2023-11-22T15:42:31;107.80;;;36.40;;
68379;SDS011;57711;53.196;19.638;2023-11-22T15:44:58;185.80;;;103.80;;
68379;SDS011;57711;53.196;19.638;2023-11-22T15:47:25;352.20;;;208.30;;
68379;SDS011;57711;53.196;19.638;2023-11-22T15:49:53;288.10;;;146.30;;
68379;SDS011;57711;53.196;19.638;2023-11-22T15:52:21;155.20;;;71.60;;
68379;SDS011;57711;53.196;19.638;2023-11-22T15:54:49;119.60;;;61.90;;
68379;SDS011;57711;53.196;19.638;2023-11-22T15:57:16;84.20;;;35.00;;
68379;SDS011;57711;53.196;19.638;2023-11-22T15:59:43;78.40;;;40.00;;
68379;SDS011;57711;53.196;19.638;2023-11-22T16:02:10;64.40;;;34.70;;
68379;SDS011;57711;53.196;19.638;2023-11-22T16:04:38;58.70;;;30.10;;
68379;SDS011;57711;53.196;19.638;2023-11-22T16:07:05;62.70;;;36.00;;
68379;SDS011;57711;53.196;19.638;2023-11-22T16:09:33;64.50;;;26.00;;
68379;SDS011;57711;53.196;19.638;2023-11-22T16:12:00;73.00;;;31.00;;
68379;SDS011;57711;53.196;19.638;2023-11-22T16:14:28;90.10;;;43.30;;
68379;SDS011;57711;53.196;19.638;2023-11-22T16:16:56;127.90;;;43.00;;
68379;SDS011;57711;53.196;19.638;2023-11-22T16:19:23;90.00;;;37.40;;
68379;SDS011;57711;53.196;19.638;2023-11-22T16:21:51;71.10;;;34.00;;
68379;SDS011;57711;53.196;19.638;2023-11-22T16:24:19;106.10;;;40.30;;
68379;SDS011;57711;53.196;19.638;2023-11-22T16:26:47;79.70;;;37.40;;
68379;SDS011;57711;53.196;19.638;2023-11-22T16:29:14;70.30;;;31.30;;
68379;SDS011;57711;53.196;19.638;2023-11-22T16:31:43;70.30;;;30.00;;
68379;SDS011;57711;53.196;19.638;2023-11-22T16:34:10;109.40;;;56.30;;
68379;SDS011;57711;53.196;19.638;2023-11-22T16:36:38;82.00;;;34.40;;
68379;SDS011;57711;53.196;19.638;2023-11-22T16:39:07;224.00;;;71.60;;
68379;SDS011;57711;53.196;19.638;2023-11-22T16:41:50;117.40;;;48.50;;
68379;SDS011;57711;53.196;19.638;2023-11-22T16:44:18;142.00;;;69.20;;
68379;SDS011;57711;53.196;19.638;2023-11-22T16:46:48;84.00;;;30.50;;
68379;SDS011;57711;53.196;19.638;2023-11-22T16:49:16;91.30;;;34.50;;
68379;SDS011;57711;53.196;19.638;2023-11-22T16:51:43;83.60;;;31.80;;
68379;SDS011;57711;53.196;19.638;2023-11-22T16:54:13;113.50;;;28.80;;
68379;SDS011;57711;53.196;19.638;2023-11-22T16:56:40;102.60;;;34.60;;
68379;SDS011;57711;53.196;19.638;2023-11-22T16:59:08;76.90;;;30.00;;
68379;SDS011;57711;53.196;19.638;2023-11-22T17:01:35;81.30;;;33.10;;
68379;SDS011;57711;53.196;19.638;2023-11-22T17:04:03;73.70;;;30.90;;
68379;SDS011;57711;53.196;19.638;2023-11-22T17:06:30;78.30;;;33.20;;
68379;SDS011;57711;53.196;19.638;2023-11-22T17:08:57;74.00;;;31.50;;
68379;SDS011;57711;53.196;19.638;2023-11-22T17:11:25;73.80;;;32.30;;
68379;SDS011;57711;53.196;19.638;2023-11-22T17:13:52;83.00;;;37.70;;
68379;SDS011;57711;53.196;19.638;2023-11-22T17:16:19;102.50;;;42.70;;
68379;SDS011;57711;53.196;19.638;2023-11-22T17:18:47;94.50;;;44.10;;
68379;SDS011;57711;53.196;19.638;2023-11-22T17:21:14;70.60;;;29.00;;
68379;SDS011;57711;53.196;19.638;2023-11-22T17:23:44;55.00;;;26.80;;
68379;SDS011;57711;53.196;19.638;2023-11-22T17:26:12;54.90;;;26.10;;
68379;SDS011;57711;53.196;19.638;2023-11-22T17:28:39;61.50;;;29.00;;
68379;SDS011;57711;53.196;19.638;2023-11-22T17:31:07;72.50;;;32.60;;
68379;SDS011;57711;53.196;19.638;2023-11-22T17:33:34;64.00;;;25.70;;
68379;SDS011;57711;53.196;19.638;2023-11-22T17:36:03;50.30;;;24.50;;
68379;SDS011;57711;53.196;19.638;2023-11-22T17:38:31;78.30;;;33.50;;
68379;SDS011;57711;53.196;19.638;2023-11-22T17:40:58;94.80;;;49.40;;
68379;SDS011;57711;53.196;19.638;2023-11-22T17:43:27;94.20;;;48.60;;
68379;SDS011;57711;53.196;19.638;2023-11-22T17:45:54;86.20;;;44.00;;
68379;SDS011;57711;53.196;19.638;2023-11-22T17:48:22;98.20;;;47.30;;
68379;SDS011;57711;53.196;19.638;2023-11-22T17:50:50;76.60;;;35.60;;
68379;SDS011;57711;53.196;19.638;2023-11-22T17:53:17;109.20;;;40.30;;
68379;SDS011;57711;53.196;19.638;2023-11-22T17:55:44;90.30;;;37.80;;
68379;SDS011;57711;53.196;19.638;2023-11-22T17:58:11;113.60;;;47.30;;
68379;SDS011;57711;53.196;19.638;2023-11-22T18:00:38;97.10;;;44.10;;
68379;SDS011;57711;53.196;19.638;2023-11-22T18:03:05;94.40;;;41.00;;
68379;SDS011;57711;53.196;19.638;2023-11-22T18:05:33;122.00;;;44.20;;
68379;SDS011;57711;53.196;19.638;2023-11-22T18:08:19;101.30;;;40.90;;
68379;SDS011;57711;53.196;19.638;2023-11-22T18:10:47;91.30;;;41.60;;
68379;SDS011;57711;53.196;19.638;2023-11-22T18:13:16;192.30;;;99.70;;
68379;SDS011;57711;53.196;19.638;2023-11-22T18:15:43;338.30;;;215.10;;
68379;SDS011;57711;53.196;19.638;2023-11-22T18:18:13;116.30;;;54.90;;
68379;SDS011;57711;53.196;19.638;2023-11-22T18:20:41;106.10;;;52.00;;
68379;SDS011;57711;53.196;19.638;2023-11-22T18:23:09;238.70;;;75.20;;
68379;SDS011;57711;53.196;19.638;2023-11-22T18:25:36;189.90;;;63.30;;
68379;SDS011;57711;53.196;19.638;2023-11-22T18:28:03;181.60;;;63.70;;
68379;SDS011;57711;53.196;19.638;2023-11-22T18:30:33;199.10;;;75.50;;
68379;SDS011;57711;53.196;19.638;2023-11-22T18:33:00;389.30;;;237.30;;
68379;SDS011;57711;53.196;19.638;2023-11-22T18:35:29;210.90;;;130.30;;
68379;SDS011;57711;53.196;19.638;2023-11-22T18:38:01;1497.90;;;443.30;;
68379;SDS011;57711;53.196;19.638;2023-11-22T18:40:30;483.70;;;136.30;;
68379;SDS011;57711;53.196;19.638;2023-11-22T18:43:00;320.30;;;95.00;;
68379;SDS011;57711;53.196;19.638;2023-11-22T18:45:30;369.60;;;109.10;;
68379;SDS011;57711;53.196;19.638;2023-11-22T18:48:01;399.80;;;113.10;;
68379;SDS011;57711;53.196;19.638;2023-11-22T18:50:28;489.30;;;144.70;;
68379;SDS011;57711;53.196;19.638;2023-11-22T18:52:55;567.40;;;180.60;;
68379;SDS011;57711;53.196;19.638;2023-11-22T18:55:23;420.80;;;111.20;;
68379;SDS011;57711;53.196;19.638;2023-11-22T18:57:50;481.30;;;148.60;;
68379;SDS011;57711;53.196;19.638;2023-11-22T19:00:17;403.70;;;130.50;;
68379;SDS011;57711;53.196;19.638;2023-11-22T19:02:46;497.90;;;212.80;;
68379;SDS011;57711;53.196;19.638;2023-11-22T19:05:14;251.70;;;84.30;;
68379;SDS011;57711;53.196;19.638;2023-11-22T19:07:41;286.30;;;170.20;;
68379;SDS011;57711;53.196;19.638;2023-11-22T19:10:09;117.90;;;53.20;;
68379;SDS011;57711;53.196;19.638;2023-11-22T19:12:36;144.10;;;60.30;;
68379;SDS011;57711;53.196;19.638;2023-11-22T19:15:06;497.00;;;148.60;;
68379;SDS011;57711;53.196;19.638;2023-11-22T19:17:34;648.00;;;177.80;;
68379;SDS011;57711;53.196;19.638;2023-11-22T19:20:01;394.20;;;165.90;;
68379;SDS011;57711;53.196;19.638;2023-11-22T19:22:29;306.40;;;151.80;;
68379;SDS011;57711;53.196;19.638;2023-11-22T19:24:56;111.50;;;54.00;;
68379;SDS011;57711;53.196;19.638;2023-11-22T19:27:23;483.90;;;238.20;;
68379;SDS011;57711;53.196;19.638;2023-11-22T19:29:51;341.20;;;95.90;;
68379;SDS011;57711;53.196;19.638;2023-11-22T19:32:18;428.50;;;179.70;;
68379;SDS011;57711;53.196;19.638;2023-11-22T19:34:48;643.00;;;463.60;;
68379;SDS011;57711;53.196;19.638;2023-11-22T19:37:15;212.80;;;104.90;;
68379;SDS011;57711;53.196;19.638;2023-11-22T19:39:43;171.10;;;93.10;;
68379;SDS011;57711;53.196;19.638;2023-11-22T19:42:10;87.90;;;42.40;;